Aérodrome :
LOGIN :

S'inscrire | Disclaimer

   EN    FR    IT 

 










Légende :    VFR   VFR Marginal   IFR   IFR Intensif   IFR Très Intensif
Visi : 
Plafond : 
>= 8 km
>= 3000ft
5 à 8 km
1000 à 3000 ft
1500m à 5 km
500 à 1000 ft
800 à 1500m
200 à 500 ft
< 800m
< 200 ft
Symboles :   Orages  Brouillard  Fortes neiges  Fortes précipitations  Vent > 20 kt
SIGMETs :   Divers  Orages  Givrage  Turbulence  Onde Orograph.  Cendres Volcan.







- Altitude de l'aérodrome : 53 ft
- Code IATA : LBC


EDHL - Lübeck

DERNIER METAR :
  • 221420Z 02006KT 9000 BKN026 02/M02 Q1026

METARs EXPIRÉS :
  • 221350Z 03005KT 9999 BKN019 02/M01 Q1027
  • 221320Z 31004KT 9999 BKN019 02/M02 Q1027
  • 221250Z 33003KT 290V020 9999 BKN024 BKN045 02/M02 Q1027
  • 221220Z 33003KT 270V030 9999 BKN023 BKN043 02/M02 Q1027
  • 221150Z 33004KT 300V360 9999 SCT021 BKN043 02/M02 Q1027

TAF TAF EDHL
Valide du 22 à 15h jusqu'au 22 à 21h UTC


221400Z 2215/2221 03004KT 9999 SCT020
PROB30
TEMPO 2215/2221 4000 -SHSN FEW008 BKN014
Pas de NOTAMs connus pour ce terrain.



MET'MAP, la Météo Aéronautique d'un coup d'oeil ! - Copyright ORBIFLY Décembre 2007 - Disclaimer

ORBIFLY MET'MAP TEAM :

Programmation & Développement : Alexandra Zaïnal
Conception & Développement : Baudouin d'Aumeries
Co-Programmation & Développement : Marc-Olivier Méhu
Soutien technique & logistique : Manuel Goepfert

Contact : metmap@orbifly.com




SOURCES & CREDITS :

   NOAA